createdAt,value
2023-01-15T00:00:47.203Z,1.50
2023-01-15T00:03:22.372Z,1.70
2023-01-15T00:05:51.080Z,1.90
2023-01-15T00:08:19.603Z,2.07
2023-01-15T00:10:49.780Z,1.83
2023-01-15T00:13:18.375Z,1.80
2023-01-15T00:15:48.101Z,2.00
2023-01-15T00:18:16.522Z,2.20
2023-01-15T00:20:47.973Z,1.90
2023-01-15T00:23:36.946Z,1.93
2023-01-15T00:26:24.264Z,1.93
2023-01-15T00:28:52.587Z,2.10
2023-01-15T00:31:20.936Z,1.90
2023-01-15T00:36:18.191Z,1.80
2023-01-15T00:38:46.495Z,1.90
2023-01-15T00:41:22.077Z,1.60
2023-01-15T00:43:50.805Z,1.83
2023-01-15T00:46:19.229Z,2.20
2023-01-15T00:48:47.632Z,2.07
2023-01-15T00:54:02.525Z,2.20
2023-01-15T00:56:31.607Z,2.10
2023-01-15T01:01:33.506Z,1.60
2023-01-15T01:04:02.860Z,1.80
2023-01-15T01:06:34.072Z,1.90
2023-01-15T01:09:03.869Z,2.20
2023-01-15T01:11:34.649Z,1.80
2023-01-15T01:14:05.465Z,2.03
2023-01-15T01:16:37.751Z,2.00
2023-01-15T01:19:08.863Z,1.93
2023-01-15T01:21:39.362Z,1.90
2023-01-15T01:24:09.760Z,1.73
2023-01-15T01:26:38.397Z,2.00
2023-01-15T01:29:07.308Z,1.73
2023-01-15T01:31:35.802Z,1.60
2023-01-15T01:34:04.164Z,1.90
2023-01-15T01:36:36.100Z,2.20
2023-01-15T01:39:05.869Z,1.60
2023-01-15T01:41:36.117Z,1.40
2023-01-15T01:44:07.043Z,1.50
2023-01-15T01:46:37.108Z,1.60
2023-01-15T01:49:09.204Z,1.50
2023-01-15T01:51:42.220Z,1.23
2023-01-15T01:54:12.067Z,1.40
2023-01-15T01:56:42.268Z,1.40
2023-01-15T01:59:10.924Z,1.67
2023-01-15T02:01:41.224Z,1.43
2023-01-15T02:04:11.908Z,1.37
2023-01-15T02:06:43.713Z,1.50
2023-01-15T02:09:12.250Z,1.60
2023-01-15T02:11:42.116Z,1.43
2023-01-15T02:14:14.685Z,1.47
2023-01-15T02:16:47.268Z,1.37
2023-01-15T02:19:26.743Z,1.47
2023-01-15T02:22:07.939Z,1.60
2023-01-15T02:24:50.440Z,1.50
2023-01-15T02:27:22.347Z,1.80
2023-01-15T02:29:57.827Z,1.80
2023-01-15T02:32:33.307Z,1.50
2023-01-15T02:35:08.701Z,1.63
2023-01-15T02:37:43.008Z,1.70
2023-01-15T02:40:13.643Z,1.43
2023-01-15T02:42:47.658Z,1.50
2023-01-15T02:45:24.105Z,1.70
2023-01-15T02:47:55.637Z,1.40
2023-01-15T02:50:31.241Z,1.60
2023-01-15T02:53:04.030Z,1.60
2023-01-15T02:55:39.788Z,1.60
2023-01-15T02:58:14.731Z,1.70
2023-01-15T03:00:50.499Z,1.63
2023-01-15T03:03:27.699Z,1.50
2023-01-15T03:06:02.250Z,1.40
2023-01-15T03:08:31.178Z,1.83
2023-01-15T03:11:07.190Z,1.80
2023-01-15T03:13:47.304Z,1.67
2023-01-15T03:16:39.089Z,1.93
2023-01-15T03:19:18.175Z,1.60
2023-01-15T03:21:53.460Z,1.47
2023-01-15T03:24:30.149Z,1.60
2023-01-15T03:26:59.670Z,1.70
2023-01-15T03:29:34.066Z,1.57
2023-01-15T03:32:03.197Z,1.40
2023-01-15T03:34:39.126Z,1.13
2023-01-15T03:37:08.632Z,1.40
2023-01-15T03:39:37.317Z,1.30
2023-01-15T03:42:26.423Z,1.40
2023-01-15T03:45:07.235Z,1.83
2023-01-15T03:47:46.932Z,1.67
2023-01-15T03:50:24.577Z,1.20
2023-01-15T03:52:59.865Z,1.70
2023-01-15T03:55:38.351Z,1.50
2023-01-15T03:58:14.677Z,1.50
2023-01-15T04:00:51.967Z,1.20
2023-01-15T04:03:24.061Z,1.90
2023-01-15T04:05:53.836Z,1.60
2023-01-15T04:08:23.650Z,1.57
2023-01-15T04:10:54.526Z,1.73
2023-01-15T04:13:24.897Z,1.60
2023-01-15T04:15:57.108Z,1.53
2023-01-15T04:18:27.375Z,1.73
2023-01-15T04:20:56.065Z,1.67
2023-01-15T04:23:24.697Z,1.60
2023-01-15T04:25:53.200Z,2.20
2023-01-15T04:28:21.652Z,1.83
2023-01-15T04:30:50.355Z,1.50
2023-01-15T04:33:20.267Z,1.70
2023-01-15T04:35:49.034Z,1.53
2023-01-15T04:38:18.061Z,1.73
2023-01-15T04:41:03.709Z,1.60
2023-01-15T04:43:49.388Z,1.47
2023-01-15T04:46:21.692Z,1.17
2023-01-15T04:48:51.611Z,1.60
2023-01-15T04:51:19.997Z,1.60
2023-01-15T04:53:48.518Z,1.30
2023-01-15T04:56:16.979Z,1.60
2023-01-15T04:58:45.337Z,1.43
2023-01-15T05:01:15.163Z,1.30
2023-01-15T05:03:44.096Z,1.37
2023-01-15T05:06:14.552Z,1.73
2023-01-15T05:08:43.315Z,1.73
2023-01-15T05:11:11.762Z,1.10
2023-01-15T05:13:40.188Z,1.30
2023-01-15T05:16:10.527Z,1.50
2023-01-15T05:18:39.085Z,1.40
2023-01-15T05:21:08.313Z,1.60
2023-01-15T05:23:38.259Z,1.80
2023-01-15T05:26:07.081Z,1.67
2023-01-15T05:28:35.556Z,1.47
2023-01-15T05:31:09.194Z,1.67
2023-01-15T05:33:38.805Z,1.60
2023-01-15T05:36:10.122Z,1.90
2023-01-15T05:38:41.010Z,1.90
2023-01-15T05:41:26.103Z,1.60
2023-01-15T05:43:54.812Z,1.80
2023-01-15T05:46:23.301Z,1.73
2023-01-15T05:48:51.712Z,2.10
2023-01-15T05:51:20.142Z,1.50
2023-01-15T05:53:49.938Z,1.73
2023-01-15T05:56:18.368Z,1.80
2023-01-15T05:58:46.964Z,1.80
2023-01-15T06:01:15.684Z,2.13
2023-01-15T06:03:44.393Z,1.70
2023-01-15T06:06:15.730Z,1.83
2023-01-15T06:08:44.369Z,1.93
2023-01-15T06:11:14.135Z,2.00
2023-01-15T06:13:42.536Z,2.13
2023-01-15T06:16:11.899Z,2.13
2023-01-15T06:18:40.830Z,1.90
2023-01-15T06:21:11.529Z,1.40
2023-01-15T06:23:41.383Z,1.43
2023-01-15T06:26:15.286Z,1.57
2023-01-15T06:28:44.440Z,1.80
2023-01-15T06:31:14.703Z,1.63
2023-01-15T06:33:43.687Z,1.77
2023-01-15T06:36:14.741Z,1.40
2023-01-15T06:38:44.075Z,1.70
2023-01-15T06:41:30.684Z,2.10
2023-01-15T06:44:16.765Z,1.77
2023-01-15T22:32:11.269Z,2.67
2023-01-15T22:34:39.776Z,4.00
2023-01-15T22:37:10.992Z,3.43
2023-01-15T22:39:42.037Z,3.30
2023-01-15T22:42:28.437Z,2.93
2023-01-15T22:45:00.167Z,2.73
2023-01-15T22:47:30.663Z,2.70
2023-01-15T22:49:59.108Z,3.03
2023-01-15T22:52:27.460Z,2.50
2023-01-15T22:54:56.151Z,2.80
2023-01-15T22:57:24.664Z,1.93
2023-01-15T22:59:52.953Z,2.30
2023-01-15T23:04:49.736Z,2.10
2023-01-15T23:07:18.270Z,3.13
2023-01-15T23:09:57.111Z,2.53
2023-01-15T23:12:25.515Z,2.67
2023-01-15T23:14:53.878Z,2.53
2023-01-15T23:17:22.350Z,2.90
2023-01-15T23:19:56.057Z,2.37
2023-01-15T23:22:24.521Z,2.00
2023-01-15T23:24:53.253Z,2.30
2023-01-15T23:27:21.780Z,2.60
2023-01-15T23:29:50.123Z,2.37
2023-01-15T23:32:18.468Z,1.77
2023-01-15T23:34:46.998Z,1.93
2023-01-15T23:37:17.317Z,1.30
2023-01-15T23:39:45.719Z,1.30
2023-01-15T23:42:33.456Z,1.30
2023-01-15T23:45:19.645Z,1.30
2023-01-15T23:47:48.247Z,1.33
2023-01-15T23:50:17.154Z,1.30
2023-01-15T23:52:47.503Z,1.27
2023-01-15T23:55:16.153Z,1.60
2023-01-15T23:57:44.993Z,1.40
